createdAt,value
2018-09-09T11:31:06.143Z,22.00
2018-09-09T11:33:35.747Z,21.80
2018-09-09T11:36:06.571Z,21.70
2018-09-09T11:38:36.383Z,21.80
2018-09-09T11:41:06.003Z,21.80
2018-09-09T11:43:35.641Z,21.90
2018-09-09T11:46:05.251Z,21.90
2018-09-09T11:48:34.924Z,22.00
2018-09-09T11:51:04.615Z,22.40
2018-09-09T11:53:35.852Z,23.00
2018-09-09T11:56:05.513Z,24.00
2018-09-09T11:58:35.233Z,24.80
2018-09-09T12:01:04.936Z,25.40
2018-09-09T12:03:34.572Z,26.20
2018-09-09T12:06:04.257Z,26.90
2018-09-09T12:08:33.992Z,27.30
2018-09-09T12:11:03.587Z,27.60
2018-09-09T12:13:33.389Z,28.00
2018-09-09T12:16:02.932Z,28.30
2018-09-09T12:21:54.313Z,27.60
2018-09-09T12:24:23.991Z,27.40
2018-09-09T12:26:53.700Z,27.10
2018-09-09T12:29:23.407Z,26.70
2018-09-09T12:31:53.037Z,26.30
2018-09-09T12:34:22.669Z,26.00
2018-09-09T12:36:52.304Z,25.80
2018-09-09T12:39:21.931Z,25.40
2018-09-09T12:41:51.589Z,25.20
2018-09-09T12:44:26.332Z,25.30
2018-09-09T12:47:01.334Z,25.60
2018-09-09T12:49:30.993Z,26.30
2018-09-09T12:52:00.661Z,26.30
2018-09-09T12:54:30.324Z,26.10
2018-09-09T12:56:59.931Z,27.80
2018-09-09T12:59:29.633Z,30.60
2018-09-09T13:01:59.253Z,32.10
2018-09-09T13:04:28.873Z,32.20
2018-09-09T13:06:58.503Z,31.50
2018-09-09T13:09:28.123Z,30.20
2018-09-09T13:11:58.698Z,29.00
2018-09-09T13:14:28.324Z,30.90
2018-09-09T13:16:57.974Z,34.60
2018-09-09T13:19:28.510Z,38.70
2018-09-09T13:21:58.147Z,41.80
2018-09-09T13:24:27.763Z,43.90
2018-09-09T13:26:57.458Z,45.30
2018-09-09T13:29:27.253Z,46.40
2018-09-09T13:31:56.867Z,46.70
2018-09-09T13:34:26.471Z,46.80
2018-09-09T13:36:56.130Z,46.80
2018-09-09T13:39:25.752Z,46.50
2018-09-09T13:41:55.401Z,45.90
2018-09-09T13:44:25.012Z,43.90
2018-09-09T13:46:54.624Z,42.30
2018-09-09T13:51:16.364Z,42.60
2018-09-09T13:53:45.984Z,44.00
2018-09-09T13:56:15.659Z,44.80
2018-09-09T13:58:45.364Z,45.60
2018-09-09T14:01:14.976Z,47.10
2018-09-09T14:03:44.671Z,48.30
2018-09-09T14:06:14.336Z,49.40
2018-09-09T14:08:43.979Z,50.30
2018-09-09T14:11:13.718Z,50.60
2018-09-09T14:13:43.393Z,49.60
2018-09-09T14:16:13.011Z,48.60
2018-09-09T14:18:42.627Z,47.20
2018-09-09T14:21:12.234Z,44.70
2018-09-09T14:23:41.880Z,41.90
2018-09-09T14:26:11.584Z,39.60
2018-09-09T14:28:41.255Z,38.70
2018-09-09T14:31:10.909Z,38.40
2018-09-09T14:33:40.533Z,39.90
2018-09-09T14:36:10.160Z,41.50
2018-09-09T14:38:39.773Z,43.50
2018-09-09T14:41:09.396Z,44.70
2018-09-09T14:43:39.052Z,45.40
2018-09-09T14:46:08.705Z,45.80
2018-09-09T14:48:38.412Z,45.60
2018-09-09T14:51:08.178Z,43.80
2018-09-09T14:53:37.963Z,41.40
2018-09-09T14:56:07.622Z,38.90
2018-09-09T14:58:37.331Z,37.20
2018-09-09T15:01:07.024Z,35.70
2018-09-09T15:03:36.765Z,34.40
2018-09-09T15:06:06.616Z,35.20
2018-09-09T15:08:36.275Z,37.50
2018-09-09T15:11:06.012Z,39.70
2018-09-09T15:13:35.648Z,41.50
2018-09-09T15:16:05.324Z,43.00
2018-09-09T15:18:34.933Z,44.00
2018-09-09T15:21:04.584Z,44.20
2018-09-09T15:23:34.220Z,44.40
2018-09-09T15:26:03.894Z,43.90
2018-09-09T15:28:33.524Z,43.10
2018-09-09T15:31:03.276Z,42.50
2018-09-09T15:33:33.468Z,42.70
2018-09-09T15:36:03.103Z,42.90
2018-09-09T15:38:32.757Z,43.10
2018-09-09T15:41:02.425Z,43.10
2018-09-09T15:43:32.067Z,43.10
2018-09-09T15:46:01.716Z,43.00
2018-09-09T15:48:31.348Z,42.90
2018-09-09T15:51:00.971Z,42.80
2018-09-09T15:53:30.603Z,42.70
2018-09-09T15:56:00.324Z,42.50
2018-09-09T15:58:29.973Z,42.50
2018-09-09T16:00:59.795Z,42.40
2018-09-09T16:03:29.508Z,42.10
2018-09-09T16:05:59.144Z,41.50
2018-09-09T16:08:30.448Z,40.80
2018-09-09T16:11:00.172Z,40.40
2018-09-09T16:13:29.808Z,40.00
2018-09-09T16:15:59.412Z,39.70
2018-09-09T16:18:29.098Z,39.30
2018-09-09T16:20:59.144Z,38.70
2018-09-09T16:23:28.869Z,38.30
2018-09-09T16:25:58.491Z,37.80
2018-09-09T16:28:28.190Z,37.30
2018-09-09T16:30:57.886Z,36.80
2018-09-09T16:33:27.538Z,36.20
2018-09-09T16:35:57.189Z,35.70
2018-09-09T16:38:26.887Z,35.20
2018-09-09T16:40:56.739Z,34.90
2018-09-09T16:43:26.706Z,34.60
2018-09-09T16:45:56.820Z,34.10
2018-09-09T16:48:27.288Z,33.30
2018-09-09T16:50:56.963Z,32.70
2018-09-09T16:53:26.565Z,32.30
2018-09-09T16:55:56.205Z,31.80
2018-09-09T16:58:25.919Z,31.20
2018-09-09T17:00:55.680Z,30.40
2018-09-09T17:03:25.468Z,29.40
2018-09-09T17:05:55.197Z,28.30
2018-09-09T17:08:25.090Z,27.30
2018-09-09T17:10:54.887Z,26.50
2018-09-09T17:13:24.887Z,25.70
2018-09-09T17:15:54.752Z,25.10
2018-09-09T17:18:24.573Z,24.50
2018-09-09T17:20:54.526Z,24.00
2018-09-09T17:23:24.243Z,23.70
2018-09-09T17:25:53.985Z,23.30
2018-09-09T17:28:24.131Z,23.00
2018-09-09T17:30:54.438Z,22.70
2018-09-09T17:33:24.484Z,22.40
2018-09-09T17:35:55.077Z,22.10
2018-09-09T17:38:24.901Z,21.90
2018-09-09T17:40:55.169Z,21.60
2018-09-09T17:43:25.959Z,21.40
2018-09-09T17:45:56.628Z,21.20
2018-09-09T17:48:26.630Z,21.00
2018-09-09T17:50:57.135Z,20.80
2018-09-09T17:53:28.047Z,20.60
2018-09-09T17:55:58.605Z,20.40
2018-09-09T17:58:30.000Z,20.20
2018-09-09T18:00:59.712Z,20.10
2018-09-09T18:03:29.674Z,19.90
2018-09-09T18:05:59.376Z,19.70
2018-09-09T18:08:29.061Z,19.60
2018-09-09T18:10:58.845Z,19.50
2018-09-09T18:13:29.545Z,19.30
2018-09-09T18:15:59.245Z,19.20
2018-09-09T18:18:29.072Z,19.00
2018-09-09T18:20:58.785Z,18.90
2018-09-09T18:23:28.532Z,18.80
2018-09-09T18:25:58.320Z,18.60
2018-09-09T18:28:28.021Z,18.60
2018-09-09T18:30:57.663Z,18.50
2018-09-09T18:33:27.447Z,18.40
2018-09-09T18:35:57.141Z,18.30
2018-09-09T18:38:26.868Z,18.10
2018-09-09T18:40:56.566Z,18.10
2018-09-09T18:43:26.249Z,17.90
2018-09-09T18:45:55.994Z,17.80
2018-09-09T18:48:25.809Z,17.80
2018-09-09T18:50:55.534Z,17.70
2018-09-09T18:53:25.212Z,17.60
2018-09-09T18:55:55.024Z,17.60
2018-09-09T18:58:24.763Z,17.50
2018-09-09T19:00:54.538Z,17.40
2018-09-09T19:03:24.569Z,17.40
2018-09-09T19:05:54.225Z,17.30
2018-09-09T19:08:23.920Z,17.30
2018-09-09T19:10:53.764Z,17.20
2018-09-09T19:13:23.479Z,17.20
2018-09-09T19:15:53.225Z,17.20
2018-09-09T19:18:22.888Z,17.10
2018-09-09T19:20:52.624Z,17.10
2018-09-09T19:23:22.313Z,17.10
2018-09-09T19:25:52.195Z,17.00
2018-09-09T19:28:21.983Z,17.00
2018-09-09T19:30:51.936Z,17.00
2018-09-09T19:33:21.977Z,17.10
2018-09-09T19:35:51.761Z,17.00
2018-09-09T19:38:21.541Z,16.90
2018-09-09T19:40:51.223Z,16.90
2018-09-09T19:43:21.128Z,16.80
2018-09-09T19:45:51.078Z,16.80
2018-09-09T19:48:20.745Z,16.70
2018-09-09T19:50:50.549Z,16.70
2018-09-09T19:53:20.380Z,16.60
2018-09-09T19:55:50.065Z,16.60
2018-09-09T19:58:19.952Z,16.60
2018-09-09T20:00:49.724Z,16.50
2018-09-09T20:03:19.670Z,16.50
2018-09-09T20:05:49.497Z,16.50
2018-09-09T20:08:19.345Z,16.40
2018-09-09T20:10:49.060Z,16.40
2018-09-09T20:13:18.749Z,16.30
2018-09-09T20:15:48.495Z,16.30
2018-09-09T20:18:18.124Z,16.30
2018-09-09T20:20:47.732Z,16.30
2018-09-09T20:23:17.377Z,16.30
2018-09-09T20:25:47.046Z,16.30
2018-09-09T20:28:16.704Z,16.30
2018-09-09T20:30:46.317Z,16.30
2018-09-09T20:33:16.187Z,16.20
2018-09-09T20:35:45.836Z,16.10
2018-09-09T20:38:15.555Z,16.10
2018-09-09T20:40:45.209Z,16.10
2018-09-09T20:43:15.070Z,16.10
2018-09-09T20:45:44.677Z,16.10
2018-09-09T20:48:14.303Z,16.00
2018-09-09T20:50:43.945Z,16.00
2018-09-09T20:53:13.598Z,15.90
2018-09-09T20:55:43.227Z,15.90
2018-09-09T20:58:12.876Z,15.80
2018-09-09T21:00:42.577Z,15.70
2018-09-09T21:03:12.187Z,15.70
2018-09-09T21:05:41.855Z,15.70
2018-09-09T21:08:11.528Z,15.60
2018-09-09T21:10:41.329Z,15.60
2018-09-09T21:13:10.978Z,15.60
2018-09-09T21:15:40.622Z,15.70
2018-09-09T21:18:10.308Z,15.70
2018-09-09T21:20:39.965Z,15.80
2018-09-09T21:23:09.607Z,15.70
2018-09-09T21:25:39.220Z,15.70
2018-09-09T21:28:08.864Z,15.60
2018-09-09T21:30:38.480Z,15.60
2018-09-09T21:33:08.136Z,15.60
2018-09-09T21:35:37.760Z,15.60
2018-09-09T21:38:07.621Z,15.60
2018-09-09T21:40:37.292Z,15.60
2018-09-09T21:43:07.016Z,15.60
2018-09-09T21:45:36.680Z,15.60
2018-09-09T21:48:06.429Z,15.60
2018-09-09T21:50:36.053Z,15.70
2018-09-09T21:53:05.825Z,15.80
2018-09-09T21:55:35.425Z,15.80
2018-09-09T21:58:05.084Z,15.90
2018-09-09T22:00:38.818Z,15.90
2018-09-09T22:03:08.489Z,16.00
2018-09-09T22:05:38.095Z,16.00
2018-09-09T22:08:07.739Z,15.90
2018-09-09T22:10:37.882Z,15.90
2018-09-09T22:13:07.703Z,16.00
2018-09-09T22:15:37.299Z,16.10
2018-09-09T22:18:07.008Z,16.10
2018-09-09T22:20:36.598Z,16.10
2018-09-09T22:23:06.349Z,16.10
2018-09-09T22:25:37.083Z,16.10
2018-09-09T22:28:07.413Z,16.10
2018-09-09T22:30:37.023Z,16.10
2018-09-09T22:33:06.743Z,16.10
2018-09-09T22:35:36.347Z,16.20
2018-09-09T22:38:05.954Z,16.20
2018-09-09T22:40:35.558Z,16.20
2018-09-09T22:43:05.361Z,16.20
2018-09-09T22:45:35.917Z,16.20
2018-09-09T22:48:05.723Z,16.20
2018-09-09T22:50:35.339Z,16.10
2018-09-09T22:53:04.927Z,16.10
2018-09-09T22:55:34.572Z,16.00
2018-09-09T22:58:04.154Z,16.00
2018-09-09T23:00:33.781Z,15.90
2018-09-09T23:03:03.433Z,15.80
2018-09-09T23:05:33.157Z,15.70
2018-09-09T23:08:02.843Z,15.70
2018-09-09T23:10:32.536Z,15.70
2018-09-09T23:13:02.359Z,15.70
2018-09-09T23:15:32.102Z,15.60
2018-09-09T23:18:01.777Z,15.50
2018-09-09T23:20:31.438Z,15.50
2018-09-09T23:23:01.088Z,15.40
2018-09-09T23:25:30.772Z,15.30
2018-09-09T23:28:00.717Z,15.30
2018-09-09T23:30:30.407Z,15.20
2018-09-09T23:33:00.097Z,15.20
2018-09-09T23:35:29.881Z,15.20
2018-09-09T23:37:59.581Z,15.10
2018-09-09T23:40:29.332Z,15.00
2018-09-09T23:42:59.059Z,14.90
2018-09-09T23:45:28.736Z,14.90
2018-09-09T23:47:58.411Z,14.80
2018-09-09T23:50:28.385Z,14.70
2018-09-09T23:52:58.056Z,14.70
2018-09-09T23:55:27.771Z,14.60
2018-09-09T23:57:57.475Z,14.50
